sensor_id;sensor_type;location;lat;lon;timestamp;pressure;altitude;pressure_sealevel;temperature;humidity
20009;BME280;10165;42.662;23.260;2022-09-09T00:00:12;94386.00;;;21.50;58.55
20009;BME280;10165;42.662;23.260;2022-09-09T00:02:43;94384.78;;;21.51;58.40
20009;BME280;10165;42.662;23.260;2022-09-09T00:08:20;94386.84;;;21.03;59.70
20009;BME280;10165;42.662;23.260;2022-09-09T00:10:56;94373.84;;;21.24;59.23
20009;BME280;10165;42.662;23.260;2022-09-09T00:24:54;94359.63;;;21.10;59.59
20009;BME280;10165;42.662;23.260;2022-09-09T00:27:41;94350.22;;;21.21;59.33
20009;BME280;10165;42.662;23.260;2022-09-09T00:30:24;94351.66;;;21.29;58.65
20009;BME280;10165;42.662;23.260;2022-09-09T00:32:59;94358.75;;;21.20;58.96
20009;BME280;10165;42.662;23.260;2022-09-09T00:35:36;94348.31;;;21.18;58.93
20009;BME280;10165;42.662;23.260;2022-09-09T00:38:12;94342.28;;;21.00;59.30
20009;BME280;10165;42.662;23.260;2022-09-09T00:41:06;94342.28;;;21.00;59.62
20009;BME280;10165;42.662;23.260;2022-09-09T00:43:38;94335.59;;;21.12;58.79
20009;BME280;10165;42.662;23.260;2022-09-09T00:49:13;94349.72;;;20.92;59.08
20009;BME280;10165;42.662;23.260;2022-09-09T00:51:48;94345.41;;;20.58;60.29
20009;BME280;10165;42.662;23.260;2022-09-09T00:54:36;94345.50;;;20.88;59.62
20009;BME280;10165;42.662;23.260;2022-09-09T00:59:51;94346.31;;;20.40;60.77
20009;BME280;10165;42.662;23.260;2022-09-09T01:04:57;94349.34;;;20.90;59.43
20009;BME280;10165;42.662;23.260;2022-09-09T01:07:28;94351.13;;;21.08;58.58
20009;BME280;10165;42.662;23.260;2022-09-09T01:09:59;94343.31;;;21.13;58.47
20009;BME280;10165;42.662;23.260;2022-09-09T01:12:41;94338.22;;;21.19;58.32
20009;BME280;10165;42.662;23.260;2022-09-09T01:15:20;94345.97;;;21.17;58.20
20009;BME280;10165;42.662;23.260;2022-09-09T01:18:14;94351.09;;;21.11;58.22
20009;BME280;10165;42.662;23.260;2022-09-09T01:28:39;94343.53;;;20.92;59.09
20009;BME280;10165;42.662;23.260;2022-09-09T01:31:09;94339.25;;;20.91;58.79
20009;BME280;10165;42.662;23.260;2022-09-09T01:33:38;94340.44;;;20.90;58.98
20009;BME280;10165;42.662;23.260;2022-09-09T01:36:09;94344.47;;;20.75;59.27
20009;BME280;10165;42.662;23.260;2022-09-09T01:38:39;94351.72;;;20.88;58.94
20009;BME280;10165;42.662;23.260;2022-09-09T01:41:06;94352.78;;;20.94;58.56
20009;BME280;10165;42.662;23.260;2022-09-09T01:43:33;94357.38;;;21.01;58.37
20009;BME280;10165;42.662;23.260;2022-09-09T01:46:00;94367.00;;;20.72;58.98
20009;BME280;10165;42.662;23.260;2022-09-09T01:48:28;94362.25;;;20.79;58.88
20009;BME280;10165;42.662;23.260;2022-09-09T01:50:55;94367.63;;;20.86;58.73
20009;BME280;10165;42.662;23.260;2022-09-09T01:53:22;94370.59;;;20.99;58.62
20009;BME280;10165;42.662;23.260;2022-09-09T01:55:55;94360.44;;;21.07;58.18
20009;BME280;10165;42.662;23.260;2022-09-09T02:01:17;94353.50;;;21.02;58.38
20009;BME280;10165;42.662;23.260;2022-09-09T02:03:54;94359.91;;;20.85;59.14
20009;BME280;10165;42.662;23.260;2022-09-09T02:06:34;94357.72;;;20.69;59.19
20009;BME280;10165;42.662;23.260;2022-09-09T02:09:04;94357.97;;;20.82;59.01
20009;BME280;10165;42.662;23.260;2022-09-09T02:11:32;94353.06;;;20.66;59.46
20009;BME280;10165;42.662;23.260;2022-09-09T02:14:03;94345.13;;;20.86;58.82
20009;BME280;10165;42.662;23.260;2022-09-09T02:16:40;94334.28;;;20.82;59.02
20009;BME280;10165;42.662;23.260;2022-09-09T02:21:43;94338.88;;;20.89;58.73
20009;BME280;10165;42.662;23.260;2022-09-09T02:24:14;94339.56;;;21.00;58.30
20009;BME280;10165;42.662;23.260;2022-09-09T02:26:48;94345.00;;;21.00;58.49
20009;BME280;10165;42.662;23.260;2022-09-09T02:29:22;94344.41;;;20.78;58.92
20009;BME280;10165;42.662;23.260;2022-09-09T02:31:52;94345.63;;;20.74;58.92
20009;BME280;10165;42.662;23.260;2022-09-09T02:34:23;94348.34;;;20.74;58.86
20009;BME280;10165;42.662;23.260;2022-09-09T02:36:53;94353.09;;;20.63;59.32
20009;BME280;10165;42.662;23.260;2022-09-09T02:39:20;94364.41;;;20.58;59.20
20009;BME280;10165;42.662;23.260;2022-09-09T02:41:47;94368.84;;;20.37;59.59
20009;BME280;10165;42.662;23.260;2022-09-09T02:44:17;94364.31;;;20.17;60.36
20009;BME280;10165;42.662;23.260;2022-09-09T02:56:07;94361.13;;;20.32;60.63
20009;BME280;10165;42.662;23.260;2022-09-09T02:58:30;94363.72;;;20.43;60.41
20009;BME280;10165;42.662;23.260;2022-09-09T03:00:58;94353.22;;;20.48;60.21
20009;BME280;10165;42.662;23.260;2022-09-09T03:03:27;94361.72;;;20.54;59.92
20009;BME280;10165;42.662;23.260;2022-09-09T03:05:54;94361.28;;;20.59;59.54
20009;BME280;10165;42.662;23.260;2022-09-09T03:08:21;94359.28;;;20.67;59.45
20009;BME280;10165;42.662;23.260;2022-09-09T03:10:47;94364.72;;;20.63;59.48
20009;BME280;10165;42.662;23.260;2022-09-09T03:13:14;94364.66;;;20.70;59.26
20009;BME280;10165;42.662;23.260;2022-09-09T03:15:42;94359.19;;;20.74;59.17
20009;BME280;10165;42.662;23.260;2022-09-09T03:18:08;94356.78;;;20.83;59.00
20009;BME280;10165;42.662;23.260;2022-09-09T03:21:00;94359.47;;;20.45;59.85
20009;BME280;10165;42.662;23.260;2022-09-09T03:23:28;94364.75;;;20.12;60.97
20009;BME280;10165;42.662;23.260;2022-09-09T03:25:55;94357.19;;;20.40;60.32
20009;BME280;10165;42.662;23.260;2022-09-09T03:28:24;94356.09;;;20.24;60.72
20009;BME280;10165;42.662;23.260;2022-09-09T03:31:02;94351.69;;;20.47;59.90
20009;BME280;10165;42.662;23.260;2022-09-09T03:33:32;94340.84;;;20.47;59.90
20009;BME280;10165;42.662;23.260;2022-09-09T03:36:01;94346.19;;;20.58;59.56
20009;BME280;10165;42.662;23.260;2022-09-09T03:38:33;94353.06;;;20.66;59.35
20009;BME280;10165;42.662;23.260;2022-09-09T03:41:00;94352.56;;;20.37;59.89
20009;BME280;10165;42.662;23.260;2022-09-09T03:43:31;94358.81;;;20.27;60.43
20009;BME280;10165;42.662;23.260;2022-09-09T03:45:57;94345.13;;;20.45;60.05
20009;BME280;10165;42.662;23.260;2022-09-09T03:48:25;94346.31;;;20.40;60.19
20009;BME280;10165;42.662;23.260;2022-09-09T03:50:53;94353.16;;;20.56;59.77
20009;BME280;10165;42.662;23.260;2022-09-09T03:53:22;94369.31;;;20.22;60.55
20009;BME280;10165;42.662;23.260;2022-09-09T03:55:53;94363.72;;;19.88;61.79
20009;BME280;10165;42.662;23.260;2022-09-09T03:58:27;94363.63;;;20.02;61.62
20009;BME280;10165;42.662;23.260;2022-09-09T04:03:22;94365.78;;;20.28;60.79
20009;BME280;10165;42.662;23.260;2022-09-09T04:05:55;94365.03;;;20.24;61.03
20009;BME280;10165;42.662;23.260;2022-09-09T04:08:22;94363.03;;;20.39;60.41
20009;BME280;10165;42.662;23.260;2022-09-09T04:10:52;94364.16;;;20.41;60.14
20009;BME280;10165;42.662;23.260;2022-09-09T04:13:19;94368.91;;;20.30;60.44
20009;BME280;10165;42.662;23.260;2022-09-09T04:15:57;94363.47;;;20.27;60.64
20009;BME280;10165;42.662;23.260;2022-09-09T04:18:25;94361.06;;;20.39;60.49
20009;BME280;10165;42.662;23.260;2022-09-09T04:20:52;94365.66;;;20.46;60.06
20009;BME280;10165;42.662;23.260;2022-09-09T04:23:20;94358.31;;;20.43;60.15
20009;BME280;10165;42.662;23.260;2022-09-09T04:25:48;94364.22;;;20.34;60.31
20009;BME280;10165;42.662;23.260;2022-09-09T04:28:16;94361.81;;;20.40;60.48
20009;BME280;10165;42.662;23.260;2022-09-09T04:30:44;94367.13;;;20.58;60.12
20009;BME280;10165;42.662;23.260;2022-09-09T04:33:12;94370.25;;;20.52;60.21
20009;BME280;10165;42.662;23.260;2022-09-09T04:35:44;94371.00;;;20.57;59.96
20009;BME280;10165;42.662;23.260;2022-09-09T04:38:11;94379.88;;;20.61;60.12
20009;BME280;10165;42.662;23.260;2022-09-09T04:40:37;94390.41;;;20.51;60.43
20009;BME280;10165;42.662;23.260;2022-09-09T04:43:09;94382.69;;;20.50;60.60
20009;BME280;10165;42.662;23.260;2022-09-09T04:45:40;94377.97;;;20.58;60.36
20009;BME280;10165;42.662;23.260;2022-09-09T04:48:08;94377.91;;;20.65;60.22
20009;BME280;10165;42.662;23.260;2022-09-09T04:50:38;94369.34;;;20.70;60.11
20009;BME280;10165;42.662;23.260;2022-09-09T04:53:05;94357.69;;;20.73;60.01
20009;BME280;10165;42.662;23.260;2022-09-09T04:55:32;94354.53;;;20.74;60.13
20009;BME280;10165;42.662;23.260;2022-09-09T04:58:07;94355.00;;;20.69;60.04
20009;BME280;10165;42.662;23.260;2022-09-09T05:00:35;94354.47;;;20.81;60.24
20009;BME280;10165;42.662;23.260;2022-09-09T05:03:05;94351.38;;;20.83;59.70
20009;BME280;10165;42.662;23.260;2022-09-09T05:05:33;94346.66;;;20.87;59.96
20009;BME280;10165;42.662;23.260;2022-09-09T05:08:07;94340.91;;;20.81;60.11
20009;BME280;10165;42.662;23.260;2022-09-09T05:10:37;94340.00;;;20.95;59.09
20009;BME280;10165;42.662;23.260;2022-09-09T05:13:05;94338.41;;;20.97;58.93
20009;BME280;10165;42.662;23.260;2022-09-09T05:15:33;94352.41;;;20.96;59.37
20009;BME280;10165;42.662;23.260;2022-09-09T05:18:00;94353.50;;;21.02;58.98
20009;BME280;10165;42.662;23.260;2022-09-09T05:20:30;94341.91;;;20.98;58.90
20009;BME280;10165;42.662;23.260;2022-09-09T05:22:57;94338.84;;;20.51;59.22
20009;BME280;10165;42.662;23.260;2022-09-09T05:25:24;94335.16;;;20.76;58.73
20009;BME280;10165;42.662;23.260;2022-09-09T05:27:52;94336.94;;;20.48;59.64
20009;BME280;10165;42.662;23.260;2022-09-09T05:30:21;94342.91;;;20.74;59.14
20009;BME280;10165;42.662;23.260;2022-09-09T05:32:49;94347.41;;;20.91;58.57
20009;BME280;10165;42.662;23.260;2022-09-09T05:35:15;94341.88;;;20.61;59.56
20009;BME280;10165;42.662;23.260;2022-09-09T05:37:44;94341.31;;;20.80;59.14
20009;BME280;10165;42.662;23.260;2022-09-09T05:40:12;94350.44;;;21.00;58.41
20009;BME280;10165;42.662;23.260;2022-09-09T05:42:39;94347.72;;;21.00;58.54
20009;BME280;10165;42.662;23.260;2022-09-09T05:45:07;94355.03;;;20.62;60.15
20009;BME280;10165;42.662;23.260;2022-09-09T05:47:35;94364.00;;;21.00;59.57
20009;BME280;10165;42.662;23.260;2022-09-09T05:50:04;94358.06;;;21.09;59.05
20009;BME280;10165;42.662;23.260;2022-09-09T05:52:30;94361.97;;;21.11;58.62
20009;BME280;10165;42.662;23.260;2022-09-09T05:54:58;94357.72;;;21.07;59.02
20009;BME280;10165;42.662;23.260;2022-09-09T05:57:25;94357.72;;;20.69;59.87
20009;BME280;10165;42.662;23.260;2022-09-09T05:59:52;94356.72;;;20.90;59.49
20009;BME280;10165;42.662;23.260;2022-09-09T06:02:20;94358.19;;;21.35;58.38
20009;BME280;10165;42.662;23.260;2022-09-09T06:04:47;94369.69;;;21.13;58.88
20009;BME280;10165;42.662;23.260;2022-09-09T06:07:13;94369.44;;;21.00;59.00
20009;BME280;10165;42.662;23.260;2022-09-09T06:09:40;94373.03;;;21.27;58.19
20009;BME280;10165;42.662;23.260;2022-09-09T06:12:10;94375.38;;;21.25;57.49
20009;BME280;10165;42.662;23.260;2022-09-09T06:14:37;94374.97;;;21.61;56.73
20009;BME280;10165;42.662;23.260;2022-09-09T06:17:08;94368.19;;;21.76;55.90
20009;BME280;10165;42.662;23.260;2022-09-09T06:19:35;94369.13;;;21.92;56.38
20009;BME280;10165;42.662;23.260;2022-09-09T06:22:02;94362.06;;;22.25;54.96
20009;BME280;10165;42.662;23.260;2022-09-09T06:24:28;94364.97;;;22.38;54.26
20009;BME280;10165;42.662;23.260;2022-09-09T06:26:56;94363.31;;;22.44;53.59
20009;BME280;10165;42.662;23.260;2022-09-09T06:29:23;94369.59;;;22.41;54.18
20009;BME280;10165;42.662;23.260;2022-09-09T06:31:50;94367.28;;;22.39;53.88
20009;BME280;10165;42.662;23.260;2022-09-09T06:34:17;94364.13;;;22.18;54.45
20009;BME280;10165;42.662;23.260;2022-09-09T06:36:44;94364.03;;;22.48;54.21
20009;BME280;10165;42.662;23.260;2022-09-09T06:39:12;94352.75;;;22.50;53.90
20009;BME280;10165;42.662;23.260;2022-09-09T06:41:41;94351.44;;;22.34;54.15
20009;BME280;10165;42.662;23.260;2022-09-09T06:44:09;94354.09;;;22.38;54.14
20009;BME280;10165;42.662;23.260;2022-09-09T06:46:38;94356.66;;;22.22;54.27
20009;BME280;10165;42.662;23.260;2022-09-09T06:49:08;94363.56;;;22.53;53.83
20009;BME280;10165;42.662;23.260;2022-09-09T06:51:36;94377.78;;;22.14;54.57
20009;BME280;10165;42.662;23.260;2022-09-09T06:54:03;94370.88;;;22.06;54.67
20009;BME280;10165;42.662;23.260;2022-09-09T06:56:39;94372.13;;;22.28;54.69
20009;BME280;10165;42.662;23.260;2022-09-09T06:59:08;94380.13;;;23.09;52.47
20009;BME280;10165;42.662;23.260;2022-09-09T07:01:40;94374.22;;;23.14;52.33
20009;BME280;10165;42.662;23.260;2022-09-09T07:04:07;94374.84;;;23.21;51.78
20009;BME280;10165;42.662;23.260;2022-09-09T07:06:37;94374.03;;;23.01;53.08
20009;BME280;10165;42.662;23.260;2022-09-09T07:09:08;94377.09;;;23.26;51.87
20009;BME280;10165;42.662;23.260;2022-09-09T07:11:53;94373.81;;;22.92;52.37
20009;BME280;10165;42.662;23.260;2022-09-09T07:14:20;94364.94;;;22.88;52.10
20009;BME280;10165;42.662;23.260;2022-09-09T07:16:48;94368.53;;;23.05;51.79
20009;BME280;10165;42.662;23.260;2022-09-09T07:19:15;94372.97;;;23.18;52.02
20009;BME280;10165;42.662;23.260;2022-09-09T07:21:42;94365.09;;;23.44;51.24
20009;BME280;10165;42.662;23.260;2022-09-09T07:24:10;94361.28;;;23.57;51.19
20009;BME280;10165;42.662;23.260;2022-09-09T07:26:39;94350.53;;;23.70;51.27
20009;BME280;10165;42.662;23.260;2022-09-09T07:29:09;94353.44;;;23.79;50.43
20009;BME280;10165;42.662;23.260;2022-09-09T07:31:38;94351.91;;;23.39;50.74
20009;BME280;10165;42.662;23.260;2022-09-09T07:34:06;94354.78;;;23.71;50.90
20009;BME280;10165;42.662;23.260;2022-09-09T07:36:35;94353.09;;;23.77;50.01
20009;BME280;10165;42.662;23.260;2022-09-09T07:39:05;94352.06;;;23.71;49.77
20009;BME280;10165;42.662;23.260;2022-09-09T07:41:42;94355.78;;;23.61;50.18
20009;BME280;10165;42.662;23.260;2022-09-09T07:44:12;94365.84;;;23.84;50.04
20009;BME280;10165;42.662;23.260;2022-09-09T07:46:39;94364.84;;;23.74;49.60
20009;BME280;10165;42.662;23.260;2022-09-09T07:49:08;94372.16;;;24.16;48.25
20009;BME280;10165;42.662;23.260;2022-09-09T07:51:38;94368.84;;;23.30;51.51
20009;BME280;10165;42.662;23.260;2022-09-09T07:54:07;94359.53;;;24.22;49.00
20009;BME280;10165;42.662;23.260;2022-09-09T07:56:38;94366.47;;;24.07;49.47
20009;BME280;10165;42.662;23.260;2022-09-09T07:59:07;94356.78;;;24.22;49.08
20009;BME280;10165;42.662;23.260;2022-09-09T08:01:38;94354.75;;;24.43;47.67
20009;BME280;10165;42.662;23.260;2022-09-09T08:04:26;94358.44;;;24.85;47.42
20009;BME280;10165;42.662;23.260;2022-09-09T08:06:59;94364.06;;;24.77;47.14
20009;BME280;10165;42.662;23.260;2022-09-09T08:09:27;94361.53;;;24.87;47.25
20009;BME280;10165;42.662;23.260;2022-09-09T08:11:56;94356.44;;;25.01;46.54
20009;BME280;10165;42.662;23.260;2022-09-09T08:14:23;94357.22;;;25.31;45.99
20009;BME280;10165;42.662;23.260;2022-09-09T08:16:50;94363.47;;;24.70;46.73
20009;BME280;10165;42.662;23.260;2022-09-09T08:19:20;94358.34;;;24.56;47.50
20009;BME280;10165;42.662;23.260;2022-09-09T08:21:50;94360.66;;;24.90;47.51
20009;BME280;10165;42.662;23.260;2022-09-09T08:24:19;94363.81;;;25.33;45.42
20009;BME280;10165;42.662;23.260;2022-09-09T08:26:50;94358.56;;;25.39;46.90
20009;BME280;10165;42.662;23.260;2022-09-09T08:29:17;94346.66;;;25.74;45.57
20009;BME280;10165;42.662;23.260;2022-09-09T08:31:51;94350.81;;;25.37;45.94
20009;BME280;10165;42.662;23.260;2022-09-09T08:34:21;94346.84;;;25.38;46.29
20009;BME280;10165;42.662;23.260;2022-09-09T08:36:49;94348.88;;;25.21;45.67
20009;BME280;10165;42.662;23.260;2022-09-09T08:39:18;94361.97;;;25.43;44.93
20009;BME280;10165;42.662;23.260;2022-09-09T08:50:29;94343.69;;;25.40;44.72
20009;BME280;10165;42.662;23.260;2022-09-09T08:58:19;94341.69;;;25.28;44.62
20009;BME280;10165;42.662;23.260;2022-09-09T09:09:25;94349.31;;;25.90;44.78
20009;BME280;10165;42.662;23.260;2022-09-09T09:11:59;94337.59;;;26.15;44.35
20009;BME280;10165;42.662;23.260;2022-09-09T09:14:30;94333.47;;;26.36;43.26
20009;BME280;10165;42.662;23.260;2022-09-09T09:17:06;94335.03;;;25.70;43.93
20009;BME280;10165;42.662;23.260;2022-09-09T09:19:39;94339.91;;;26.16;43.75
20009;BME280;10165;42.662;23.260;2022-09-09T09:22:22;94335.44;;;26.48;43.23
20009;BME280;10165;42.662;23.260;2022-09-09T09:30:23;94349.78;;;26.27;43.53
20009;BME280;10165;42.662;23.260;2022-09-09T09:33:23;94341.84;;;26.67;42.93
20009;BME280;10165;42.662;23.260;2022-09-09T09:35:53;94338.50;;;26.25;42.98
20009;BME280;10165;42.662;23.260;2022-09-09T09:38:23;94335.13;;;26.93;43.11
20009;BME280;10165;42.662;23.260;2022-09-09T09:41:10;94326.78;;;26.37;42.75
20009;BME280;10165;42.662;23.260;2022-09-09T09:43:40;94316.22;;;27.07;42.83
20009;BME280;10165;42.662;23.260;2022-09-09T09:46:23;94318.34;;;26.91;41.84
20009;BME280;10165;42.662;23.260;2022-09-09T09:49:02;94318.38;;;26.78;41.56
20009;BME280;10165;42.662;23.260;2022-09-09T09:51:33;94316.59;;;26.25;42.62
20009;BME280;10165;42.662;23.260;2022-09-09T09:56:40;94313.31;;;26.89;41.71
20009;BME280;10165;42.662;23.260;2022-09-09T09:59:20;94308.22;;;27.00;44.55
20009;BME280;10165;42.662;23.260;2022-09-09T10:04:45;94317.63;;;27.34;43.54
20009;BME280;10165;42.662;23.260;2022-09-09T10:07:17;94316.38;;;27.47;40.67
20009;BME280;10165;42.662;23.260;2022-09-09T10:09:45;94322.94;;;27.50;39.63
20009;BME280;10165;42.662;23.260;2022-09-09T10:36:57;94333.72;;;26.88;41.78
20009;BME280;10165;42.662;23.260;2022-09-09T10:42:09;94339.59;;;26.99;41.94
20009;BME280;10165;42.662;23.260;2022-09-09T10:54:06;94339.00;;;26.70;42.89
20009;BME280;10165;42.662;23.260;2022-09-09T10:56:38;94340.13;;;27.07;43.37
20009;BME280;10165;42.662;23.260;2022-09-09T10:59:19;94334.59;;;26.85;43.12
20009;BME280;10165;42.662;23.260;2022-09-09T11:01:53;94337.78;;;26.71;43.93
20009;BME280;10165;42.662;23.260;2022-09-09T11:04:26;94333.72;;;26.76;44.14
20009;BME280;10165;42.662;23.260;2022-09-09T11:07:01;94336.38;;;26.67;44.78
20009;BME280;10165;42.662;23.260;2022-09-09T11:09:42;94327.38;;;26.66;45.68
20009;BME280;10165;42.662;23.260;2022-09-09T11:12:16;94335.19;;;26.68;45.82
20009;BME280;10165;42.662;23.260;2022-09-09T11:14:55;94327.91;;;26.86;45.45
20009;BME280;10165;42.662;23.260;2022-09-09T11:17:53;94324.03;;;26.96;45.91
20009;BME280;10165;42.662;23.260;2022-09-09T11:20:21;94320.16;;;27.06;45.11
20009;BME280;10165;42.662;23.260;2022-09-09T11:22:55;94313.84;;;27.19;45.95
20009;BME280;10165;42.662;23.260;2022-09-09T11:25:37;94311.25;;;27.15;45.62
20009;BME280;10165;42.662;23.260;2022-09-09T11:28:27;94307.41;;;26.78;46.49
20009;BME280;10165;42.662;23.260;2022-09-09T11:37:00;94276.28;;;27.06;46.40
20009;BME280;10165;42.662;23.260;2022-09-09T11:44:41;94253.06;;;27.20;46.76
20009;BME280;10165;42.662;23.260;2022-09-09T11:50:22;94239.44;;;27.60;45.60
20009;BME280;10165;42.662;23.260;2022-09-09T11:55:39;94242.03;;;27.33;44.22
20009;BME280;10165;42.662;23.260;2022-09-09T12:00:44;94246.63;;;27.58;43.72
20009;BME280;10165;42.662;23.260;2022-09-09T12:03:44;94242.34;;;26.91;44.64
20009;BME280;10165;42.662;23.260;2022-09-09T12:06:27;94232.44;;;27.37;44.03
20009;BME280;10165;42.662;23.260;2022-09-09T12:09:07;94230.66;;;26.78;44.80
20009;BME280;10165;42.662;23.260;2022-09-09T12:11:37;94234.50;;;27.02;45.24
20009;BME280;10165;42.662;23.260;2022-09-09T12:14:04;94215.97;;;27.37;44.45
20009;BME280;10165;42.662;23.260;2022-09-09T12:16:34;94220.91;;;27.73;44.38
20009;BME280;10165;42.662;23.260;2022-09-09T12:19:05;94218.72;;;27.59;43.85
20009;BME280;10165;42.662;23.260;2022-09-09T12:21:42;94211.31;;;28.09;41.91
20009;BME280;10165;42.662;23.260;2022-09-09T12:24:22;94230.53;;;26.82;44.80
20009;BME280;10165;42.662;23.260;2022-09-09T12:27:00;94224.59;;;26.49;44.92
20009;BME280;10165;42.662;23.260;2022-09-09T12:29:43;94208.47;;;27.50;43.88
20009;BME280;10165;42.662;23.260;2022-09-09T12:32:24;94203.19;;;27.65;43.36
20009;BME280;10165;42.662;23.260;2022-09-09T12:35:02;94206.50;;;27.51;43.78
20009;BME280;10165;42.662;23.260;2022-09-09T12:37:39;94212.41;;;27.49;44.49
20009;BME280;10165;42.662;23.260;2022-09-09T12:42:46;94207.50;;;27.75;42.95
20009;BME280;10165;42.662;23.260;2022-09-09T12:50:33;94200.53;;;28.32;40.98
20009;BME280;10165;42.662;23.260;2022-09-09T12:53:13;94198.50;;;28.33;41.81
20009;BME280;10165;42.662;23.260;2022-09-09T12:55:50;94184.22;;;27.89;42.63
20009;BME280;10165;42.662;23.260;2022-09-09T12:58:20;94179.88;;;28.19;42.13
20009;BME280;10165;42.662;23.260;2022-09-09T13:00:54;94179.34;;;27.93;42.74
20009;BME280;10165;42.662;23.260;2022-09-09T13:03:23;94178.31;;;27.60;43.73
20009;BME280;10165;42.662;23.260;2022-09-09T13:05:52;94170.59;;;27.76;43.96
20009;BME280;10165;42.662;23.260;2022-09-09T13:08:20;94167.81;;;28.25;42.90
20009;BME280;10165;42.662;23.260;2022-09-09T13:10:57;94171.59;;;28.00;43.91
20009;BME280;10165;42.662;23.260;2022-09-09T13:13:42;94170.88;;;27.07;45.83
20009;BME280;10165;42.662;23.260;2022-09-09T13:16:30;94174.25;;;27.12;45.86
20009;BME280;10165;42.662;23.260;2022-09-09T13:19:14;94172.47;;;26.96;46.32
20009;BME280;10165;42.662;23.260;2022-09-09T13:21:45;94160.47;;;27.55;45.46
20009;BME280;10165;42.662;23.260;2022-09-09T13:24:31;94154.25;;;28.13;44.11
20009;BME280;10165;42.662;23.260;2022-09-09T13:27:50;94138.81;;;28.15;42.94
20009;BME280;10165;42.662;23.260;2022-09-09T13:29:52;94147.38;;;28.08;43.58
20009;BME280;10165;42.662;23.260;2022-09-09T13:32:25;94145.78;;;27.49;44.57
20009;BME280;10165;42.662;23.260;2022-09-09T13:35:00;94150.44;;;27.70;44.50
20009;BME280;10165;42.662;23.260;2022-09-09T13:37:37;94151.72;;;27.87;44.96
20009;BME280;10165;42.662;23.260;2022-09-09T13:40:06;94149.63;;;27.21;44.40
20009;BME280;10165;42.662;23.260;2022-09-09T13:42:39;94142.34;;;27.67;45.03
20009;BME280;10165;42.662;23.260;2022-09-09T13:45:17;94139.13;;;28.08;44.08
20009;BME280;10165;42.662;23.260;2022-09-09T13:47:47;94138.47;;;28.04;43.20
20009;BME280;10165;42.662;23.260;2022-09-09T13:52:50;94135.47;;;27.62;43.22
20009;BME280;10165;42.662;23.260;2022-09-09T13:55:21;94142.03;;;27.34;43.33
20009;BME280;10165;42.662;23.260;2022-09-09T13:57:57;94131.31;;;27.97;42.59
20009;BME280;10165;42.662;23.260;2022-09-09T14:00:33;94130.22;;;27.46;43.13
20009;BME280;10165;42.662;23.260;2022-09-09T14:03:00;94136.53;;;28.23;45.71
20009;BME280;10165;42.662;23.260;2022-09-09T14:05:32;94128.63;;;28.43;43.67
20009;BME280;10165;42.662;23.260;2022-09-09T14:07:59;94127.72;;;28.73;42.74
20009;BME280;10165;42.662;23.260;2022-09-09T14:10:29;94135.63;;;28.71;42.65
20009;BME280;10165;42.662;23.260;2022-09-09T14:12:56;94119.13;;;28.62;41.63
20009;BME280;10165;42.662;23.260;2022-09-09T14:15:23;94122.81;;;28.41;42.59
20009;BME280;10165;42.662;23.260;2022-09-09T14:17:50;94121.13;;;28.34;44.13
20009;BME280;10165;42.662;23.260;2022-09-09T14:20:18;94120.81;;;28.14;43.49
20009;BME280;10165;42.662;23.260;2022-09-09T14:22:45;94118.53;;;28.31;42.83
20009;BME280;10165;42.662;23.260;2022-09-09T14:25:15;94116.88;;;28.24;44.06
20009;BME280;10165;42.662;23.260;2022-09-09T14:27:42;94123.72;;;28.29;42.50
20009;BME280;10165;42.662;23.260;2022-09-09T14:30:09;94127.16;;;27.44;43.30
20009;BME280;10165;42.662;23.260;2022-09-09T14:32:36;94116.63;;;27.91;42.55
20009;BME280;10165;42.662;23.260;2022-09-09T14:35:03;94116.69;;;28.19;43.68
20009;BME280;10165;42.662;23.260;2022-09-09T14:37:30;94117.53;;;27.88;43.78
20009;BME280;10165;42.662;23.260;2022-09-09T14:39:59;94106.13;;;27.90;43.22
20009;BME280;10165;42.662;23.260;2022-09-09T14:42:30;94110.75;;;28.11;43.54
20009;BME280;10165;42.662;23.260;2022-09-09T14:44:56;94119.00;;;28.20;43.41
20009;BME280;10165;42.662;23.260;2022-09-09T14:47:23;94120.50;;;28.30;42.79
20009;BME280;10165;42.662;23.260;2022-09-09T14:49:50;94106.50;;;27.21;44.14
20009;BME280;10165;42.662;23.260;2022-09-09T14:52:16;94118.81;;;27.47;45.50
20009;BME280;10165;42.662;23.260;2022-09-09T14:54:45;94117.22;;;27.77;45.45
20009;BME280;10165;42.662;23.260;2022-09-09T14:57:12;94120.63;;;27.90;44.00
20009;BME280;10165;42.662;23.260;2022-09-09T14:59:39;94133.09;;;27.82;45.06
20009;BME280;10165;42.662;23.260;2022-09-09T15:02:08;94139.34;;;27.83;44.85
20009;BME280;10165;42.662;23.260;2022-09-09T15:04:35;94143.91;;;27.77;44.67
20009;BME280;10165;42.662;23.260;2022-09-09T15:07:02;94147.38;;;27.68;44.74
20009;BME280;10165;42.662;23.260;2022-09-09T15:09:29;94142.03;;;27.65;45.68
20009;BME280;10165;42.662;23.260;2022-09-09T15:11:59;94139.47;;;27.70;43.96
20009;BME280;10165;42.662;23.260;2022-09-09T15:14:27;94146.28;;;27.56;44.48
20009;BME280;10165;42.662;23.260;2022-09-09T15:16:54;94143.84;;;27.59;44.98
20009;BME280;10165;42.662;23.260;2022-09-09T15:19:20;94154.09;;;27.67;44.34
20009;BME280;10165;42.662;23.260;2022-09-09T15:21:47;94146.13;;;27.60;44.10
20009;BME280;10165;42.662;23.260;2022-09-09T15:24:14;94143.44;;;27.69;44.55
20009;BME280;10165;42.662;23.260;2022-09-09T15:26:40;94139.63;;;27.76;42.41
20009;BME280;10165;42.662;23.260;2022-09-09T15:29:08;94137.69;;;27.85;42.47
20009;BME280;10165;42.662;23.260;2022-09-09T15:31:35;94137.97;;;27.78;43.64
20009;BME280;10165;42.662;23.260;2022-09-09T15:34:09;94129.88;;;27.75;43.55
20009;BME280;10165;42.662;23.260;2022-09-09T15:36:40;94120.06;;;27.65;43.14
20009;BME280;10165;42.662;23.260;2022-09-09T15:39:14;94129.09;;;27.65;42.21